Cullowhee, North Carolina
Current Conditions -  °F | °C
As of 11:54 AM on Sunday 23 Nov 2014 (Local Time) from KAVL Reporting Station
Light Rain Light Rain  
Wind Chill: 42°   Ceiling: 300
Heat Index: 45°   Visibility: 4mi
Dew Point: 43°   Wind: 6mph
Humidity: 93%   Direction: 190°S
Pressure: 30.08"   Gusts: NA
Location:  35.31°N, 83.18°W
Report Text: KAVL 231654Z 19005KT 4SM -RA BR OVC003 07/06 A3008 RMK AO2 SLP186 P0012 T00720061
Loading
Personal Weather Stations






























Interactive Weather Map New forecast layout! Learn more

10-Day Weather Forecast

Advertisements
Track Severe Weather on mobile